createdAt,value
2022-08-07T00:09:35.460Z,67.82
2022-08-07T00:24:38.041Z,67.61
2022-08-07T00:39:44.915Z,66.90
2022-08-07T00:54:54.000Z,66.12
2022-08-07T01:10:04.880Z,62.51
2022-08-07T01:25:40.377Z,60.50
2022-08-07T01:40:34.696Z,64.25
2022-08-07T01:56:04.792Z,67.80
2022-08-07T02:11:09.206Z,67.30
2022-08-07T02:26:34.522Z,67.59
2022-08-07T02:41:37.354Z,67.11
2022-08-07T02:56:41.986Z,66.58
2022-08-07T03:11:52.691Z,65.13
2022-08-07T03:27:02.314Z,63.86
2022-08-07T03:42:06.327Z,63.08
2022-08-07T03:57:11.352Z,63.00
2022-08-07T04:12:35.280Z,62.17
2022-08-07T04:27:43.991Z,61.19
2022-08-07T04:42:51.842Z,59.33
2022-08-07T04:58:38.840Z,57.32
2022-08-07T05:14:53.475Z,56.84
2022-08-07T05:29:20.216Z,55.77
2022-08-07T05:44:29.315Z,54.38
2022-08-07T05:59:39.053Z,52.86
2022-08-07T06:15:05.423Z,51.68
2022-08-07T06:30:08.473Z,49.00
2022-08-07T06:45:30.569Z,47.20
2022-08-07T07:00:38.187Z,44.81
2022-08-07T07:15:51.656Z,43.31
2022-08-07T07:31:00.377Z,41.16
2022-08-07T07:46:50.007Z,41.09
2022-08-07T08:02:02.744Z,39.95
2022-08-07T08:16:52.035Z,37.58
2022-08-07T08:31:58.674Z,35.51
2022-08-07T08:47:25.431Z,34.28
2022-08-07T09:02:39.636Z,33.91
2022-08-07T09:18:06.085Z,31.18
2022-08-07T09:33:57.853Z,30.62
2022-08-07T09:50:00.802Z,29.93
2022-08-07T10:05:20.073Z,27.52
2022-08-07T10:20:53.452Z,24.93
2022-08-07T10:36:12.461Z,23.09
2022-08-07T10:51:57.169Z,21.85
2022-08-07T11:07:01.755Z,19.74
2022-08-07T11:22:32.205Z,18.99
2022-08-07T11:37:57.920Z,21.08
2022-08-07T11:53:43.293Z,23.21
2022-08-07T12:09:16.629Z,22.83
2022-08-07T12:24:38.565Z,24.59
2022-08-07T12:39:51.044Z,25.03
2022-08-07T12:55:05.595Z,26.27
2022-08-07T13:10:37.720Z,27.33
2022-08-07T13:25:51.035Z,28.22
2022-08-07T13:41:41.554Z,28.14
2022-08-07T13:56:52.074Z,27.32
2022-08-07T14:12:04.677Z,29.11
2022-08-07T14:28:09.578Z,28.42
2022-08-07T14:57:59.484Z,29.37
2022-08-07T15:13:06.449Z,30.34
2022-08-07T15:28:34.445Z,30.88
2022-08-07T15:59:16.613Z,31.79
2022-08-07T16:14:31.916Z,33.04
2022-08-07T16:30:11.880Z,33.82
2022-08-07T16:46:33.663Z,34.34
2022-08-07T17:01:27.563Z,37.24
2022-08-07T17:16:45.053Z,35.23
2022-08-07T17:32:35.118Z,35.17
2022-08-07T17:47:44.816Z,34.83
2022-08-07T18:03:18.493Z,36.99
2022-08-07T18:21:02.816Z,37.40
2022-08-07T18:33:54.983Z,37.68
2022-08-07T18:50:30.207Z,40.07
2022-08-07T19:05:09.987Z,41.38
2022-08-07T19:20:28.807Z,43.77
2022-08-07T19:35:33.738Z,43.97
2022-08-07T19:50:43.643Z,44.88
2022-08-07T20:06:00.756Z,47.94
2022-08-07T20:21:21.204Z,48.04
2022-08-07T20:36:27.452Z,49.71
2022-08-07T20:51:35.856Z,51.25
2022-08-07T21:06:42.428Z,53.63
2022-08-07T21:21:57.501Z,55.18
2022-08-07T21:37:11.569Z,57.05
2022-08-07T21:52:33.039Z,57.37
2022-08-07T22:07:58.317Z,57.56
2022-08-07T22:23:32.958Z,60.35
2022-08-07T22:38:59.888Z,62.47
2022-08-07T22:54:30.423Z,63.02
2022-08-07T23:10:04.864Z,63.86
2022-08-07T23:25:28.656Z,65.09
2022-08-07T23:40:51.782Z,65.35
2022-08-07T23:56:07.607Z,66.77
